Time;durP1;ratioP1;P1;durP2;ratioP2;P2;SDS_P1;SDS_P2;PMS_P1;PMS_P2;Temp;Humidity;BMP_temperature;BMP_pressure;BME280_temperature;BME280_humidity;BME280_pressure;Samples;Min_cycle;Max_cycle;Signal;HPM_P1;HPM_P2
2023/07/09 00:01:55;;;;;;;;;8.33;8.33;;;;;-146.67;40.12;73793.22;5103225;27;62116;-83
2023/07/09 00:04:21;;;;;;;;;8.25;8.25;;;;;-146.67;40.29;73797.22;5103548;27;61909;-83
2023/07/09 00:06:47;;;;;;;;;10.25;9.00;;;;;-146.67;40.51;73811.19;5101073;27;63735;-83
2023/07/09 00:09:19;;;;;;;;;10.50;9.25;;;;;-146.67;40.20;73805.22;5103201;27;62155;-83
2023/07/09 00:11:45;;;;;;;;;9.25;7.00;;;;;-146.67;40.29;73817.19;5101997;27;61996;-83
2023/07/09 00:14:13;;;;;;;;;8.25;8.25;;;;;-146.67;40.55;73819.19;5101802;27;61794;-83
2023/07/09 00:16:40;;;;;;;;;9.50;8.25;;;;;-146.67;40.78;73827.16;5102768;27;63104;-80
2023/07/09 00:19:15;;;;;;;;;7.50;7.50;;;;;-146.67;40.52;73835.16;5102447;27;62000;-80
2023/07/09 00:21:40;;;;;;;;;8.00;8.00;;;;;-146.67;40.60;73841.13;5101272;27;61849;-80
2023/07/09 00:24:07;;;;;;;;;9.50;8.25;;;;;-146.67;40.25;73845.13;5100573;27;61931;-80
2023/07/09 00:26:32;;;;;;;;;11.25;8.75;;;;;-146.67;40.98;73853.13;5102555;27;62232;-80
2023/07/09 00:29:01;;;;;;;;;11.00;8.50;;;;;-146.67;39.71;73855.09;5101184;27;61900;-80
2023/07/09 00:31:26;;;;;;;;;9.33;8.67;;;;;-146.67;40.70;73857.09;5101827;27;61781;-80
2023/07/09 00:33:52;;;;;;;;;9.67;9.67;;;;;-146.67;41.43;73871.06;5101646;27;61877;-80
2023/07/09 00:36:31;;;;;;;;;11.50;9.00;;;;;-146.67;41.64;73901.03;5101992;27;63267;-80
2023/07/09 00:38:59;;;;;;;;;9.75;9.00;;;;;-146.67;41.49;73905.00;5101368;27;62013;-80
2023/07/09 00:41:25;;;;;;;;;13.75;7.00;;;;;-146.67;41.48;73905.00;5102618;27;61810;-80
2023/07/09 00:43:52;;;;;;;;;10.75;10.00;;;;;-146.67;41.20;73905.00;5101583;27;62031;-80
2023/07/09 00:46:20;;;;;;;;;9.67;9.67;;;;;-146.67;41.44;73907.00;5100737;27;64918;-80
2023/07/09 00:48:57;;;;;;;;;9.00;9.00;;;;;-146.67;41.35;73915.00;5101849;27;61785;-80
2023/07/09 00:51:26;;;;;;;;;9.00;9.00;;;;;-146.67;41.62;73922.97;5094012;27;61881;-80
2023/07/09 00:53:55;;;;;;;;;8.50;7.50;;;;;-146.67;41.71;73920.97;5082057;27;62003;-80
2023/07/09 00:56:45;;;;;;;;;9.00;9.00;;;;;-146.67;41.57;73926.97;5081126;27;63224;-80
2023/07/09 00:59:17;;;;;;;;;10.25;10.25;;;;;-146.67;41.44;73918.97;5080544;28;61854;-80
2023/07/09 01:01:43;;;;;;;;;10.33;10.33;;;;;-146.67;41.70;73926.97;5080742;27;61791;-80
2023/07/09 01:04:10;;;;;;;;;8.25;8.25;;;;;-146.67;41.74;73936.94;5081824;27;61769;-80
2023/07/09 01:06:42;;;;;;;;;12.75;8.75;;;;;-146.67;41.54;73930.97;5079814;27;64801;-80
2023/07/09 01:09:08;;;;;;;;;10.75;9.50;;;;;-146.67;41.48;73924.97;5081773;27;61915;-80
2023/07/09 01:11:34;;;;;;;;;10.00;8.25;;;;;-146.67;41.23;73928.97;5096087;27;61933;-80
2023/07/09 01:14:05;;;;;;;;;14.25;11.25;;;;;-146.67;41.73;73938.94;5121808;27;62024;-80
2023/07/09 01:16:37;;;;;;;;;11.00;9.50;;;;;-146.67;41.77;73944.94;5122216;27;61729;-80
2023/07/09 01:19:04;;;;;;;;;9.00;9.00;;;;;-146.67;41.96;73952.91;5122034;27;62398;-80
2023/07/09 01:21:29;;;;;;;;;8.25;8.00;;;;;-146.67;41.80;73948.94;5122970;27;61992;-80
2023/07/09 01:23:57;;;;;;;;;7.50;7.50;;;;;-146.67;41.82;73956.91;5122881;27;61833;-80
2023/07/09 01:26:26;;;;;;;;;10.50;10.00;;;;;-146.67;42.32;73962.91;5120122;27;63767;-80
2023/07/09 01:28:52;;;;;;;;;8.00;6.00;;;;;-146.67;42.37;73982.88;5122314;27;61764;-80
2023/07/09 01:31:19;;;;;;;;;8.50;7.50;;;;;-146.67;42.23;73986.84;5121454;27;62015;-80
2023/07/09 01:33:45;;;;;;;;;10.50;10.25;;;;;-146.67;42.44;73992.84;5114310;27;61756;-80
2023/07/09 01:36:14;;;;;;;;;10.75;8.75;;;;;-146.67;42.24;73984.84;5104684;27;61956;-80
2023/07/09 01:38:41;;;;;;;;;9.50;8.00;;;;;-146.67;42.24;73972.88;5105158;27;61749;-80
2023/07/09 01:41:06;;;;;;;;;7.00;6.00;;;;;-146.67;42.30;73980.88;5105309;27;62024;-80
2023/07/09 01:43:34;;;;;;;;;4.50;4.50;;;;;-146.67;42.54;73986.84;5105460;27;62162;-80
2023/07/09 01:46:00;;;;;;;;;9.25;7.75;;;;;-146.67;42.43;73984.84;5105118;27;61890;-80
2023/07/09 01:48:26;;;;;;;;;8.50;8.50;;;;;-146.67;42.32;73986.84;5104625;27;61884;-80
2023/07/09 01:50:53;;;;;;;;;9.00;9.00;;;;;-146.67;42.41;73996.84;5105505;27;61958;-80
2023/07/09 01:53:24;;;;;;;;;6.75;5.25;;;;;-146.67;42.37;73996.84;5103870;27;61853;-80
2023/07/09 01:55:50;;;;;;;;;9.00;9.00;;;;;-146.67;42.52;74006.81;5098012;27;62084;-80
2023/07/09 01:58:16;;;;;;;;;15.50;11.75;;;;;-146.67;42.83;74012.81;5084827;28;61823;-80
2023/07/09 02:00:42;;;;;;;;;10.50;9.50;;;;;-146.67;42.64;74010.81;5084535;28;61762;-80
2023/07/09 02:03:08;;;;;;;;;17.75;13.75;;;;;-146.67;42.35;74010.81;5083060;27;61758;-80
2023/07/09 02:05:36;;;;;;;;;17.25;14.25;;;;;-146.67;42.79;74014.81;5082777;28;64022;-80
2023/07/09 02:08:01;;;;;;;;;17.75;16.25;;;;;-146.67;42.90;74020.78;5084847;27;61890;-80
2023/07/09 02:10:27;;;;;;;;;14.50;13.50;;;;;-146.67;42.80;74018.78;5084361;27;61837;-80
2023/07/09 02:12:52;;;;;;;;;15.75;15.75;;;;;-146.67;43.00;74026.78;5083245;28;61839;-80
2023/07/09 02:15:18;;;;;;;;;14.50;14.50;;;;;-146.67;42.98;74032.75;5083941;27;62336;-80
2023/07/09 02:17:44;;;;;;;;;15.50;14.50;;;;;-146.67;43.26;74044.75;5083800;27;61796;-80
2023/07/09 02:20:11;;;;;;;;;18.75;17.00;;;;;-146.67;43.39;74046.75;5084937;28;62105;-80
2023/07/09 02:22:38;;;;;;;;;19.75;14.25;;;;;-146.67;43.61;74070.69;5084715;27;62061;-80
2023/07/09 02:25:08;;;;;;;;;15.00;13.00;;;;;-146.67;43.02;74070.69;5083601;27;63148;-80
2023/07/09 02:27:36;;;;;;;;;12.50;11.00;;;;;-146.67;43.20;74070.69;5084384;27;61773;-80
2023/07/09 02:30:02;;;;;;;;;14.25;10.75;;;;;-146.67;43.55;74076.69;5099888;27;61807;-80
2023/07/09 02:32:28;;;;;;;;;11.50;10.50;;;;;-146.67;43.50;74098.66;5082703;28;61962;-79
2023/07/09 02:34:54;;;;;;;;;11.75;10.75;;;;;-146.67;43.68;74100.63;5083404;27;61978;-80
2023/07/09 02:37:22;;;;;;;;;12.75;12.25;;;;;-146.67;44.15;74116.59;5084215;27;61735;-80
2023/07/09 02:39:48;;;;;;;;;13.00;12.00;;;;;-146.67;44.30;74118.59;5086602;27;62013;-80
2023/07/09 02:42:16;;;;;;;;;15.50;13.00;;;;;-146.67;44.35;74130.59;5103409;27;61872;-80
2023/07/09 02:44:43;;;;;;;;;13.25;10.75;;;;;-146.67;43.93;74128.59;5102475;27;64801;-80
2023/07/09 02:47:09;;;;;;;;;12.50;11.25;;;;;-146.67;44.33;74126.59;5101403;27;62123;-80
2023/07/09 02:49:35;;;;;;;;;12.75;9.25;;;;;-146.67;43.62;74122.59;5104353;27;61740;-80
2023/07/09 02:52:00;;;;;;;;;8.00;8.00;;;;;-146.67;44.33;74128.59;5104323;27;61902;-80
2023/07/09 02:54:26;;;;;;;;;9.25;8.50;;;;;-146.67;44.28;74146.56;5103236;27;63216;-80
2023/07/09 02:56:51;;;;;;;;;8.50;8.50;;;;;-146.67;44.20;74138.56;5104474;27;61839;-80
2023/07/09 02:59:17;;;;;;;;;9.50;9.25;;;;;-146.67;44.29;74148.56;5103869;27;61857;-80
2023/07/09 03:01:43;;;;;;;;;9.25;7.50;;;;;-146.67;44.14;74156.53;5104398;27;61887;-79
2023/07/09 03:04:08;;;;;;;;;11.50;10.00;;;;;-146.67;43.80;74162.53;5102170;27;64772;-79
2023/07/09 03:06:36;;;;;;;;;9.00;9.00;;;;;-146.67;44.24;74164.53;5104222;27;61815;-80
2023/07/09 03:09:03;;;;;;;;;13.00;9.75;;;;;-146.67;44.42;74168.50;5103901;27;61824;-79
2023/07/09 03:11:31;;;;;;;;;11.00;10.25;;;;;-146.67;44.03;74188.47;5104139;27;61704;-79
2023/07/09 03:13:58;;;;;;;;;11.25;8.75;;;;;-146.67;44.46;74206.44;5101972;27;63639;-80
2023/07/09 03:16:26;;;;;;;;;11.75;11.75;;;;;-146.67;45.18;74220.41;5103791;27;62013;-79
2023/07/09 03:18:52;;;;;;;;;8.75;8.75;;;;;-146.67;44.75;74214.44;5101381;27;61975;-79
2023/07/09 03:21:17;;;;;;;;;7.25;7.25;;;;;-146.67;44.86;74218.41;5104181;27;61867;-79
2023/07/09 03:23:42;;;;;;;;;9.00;7.50;;;;;-146.67;44.72;74214.44;5101898;27;63619;-79
2023/07/09 03:26:08;;;;;;;;;8.75;8.75;;;;;-146.67;44.64;74216.44;5102700;27;61966;-79
2023/07/09 03:28:33;;;;;;;;;8.50;7.50;;;;;-146.67;44.73;74230.41;5101877;27;61872;-79
2023/07/09 03:30:59;;;;;;;;;7.75;7.00;;;;;-146.67;44.73;74236.38;5104163;27;61879;-79
2023/07/09 03:33:24;;;;;;;;;10.75;10.75;;;;;-146.67;44.96;74234.38;5103301;27;61828;-79
2023/07/09 03:35:51;;;;;;;;;14.25;8.75;;;;;-146.67;45.27;74242.38;5103899;27;61896;-79
2023/07/09 03:38:16;;;;;;;;;10.00;8.25;;;;;-146.67;45.04;74246.38;5103618;27;61948;-79
2023/07/09 03:40:42;;;;;;;;;8.50;7.00;;;;;-146.67;45.22;74246.38;5103379;27;61912;-80
2023/07/09 03:43:09;;;;;;;;;9.50;8.75;;;;;-146.67;44.62;74254.34;5102631;27;62070;-79
2023/07/09 03:45:36;;;;;;;;;8.25;6.75;;;;;-146.67;45.12;74262.34;5103562;27;61961;-79
2023/07/09 03:48:03;;;;;;;;;7.00;6.75;;;;;-146.67;44.76;74258.34;5101809;27;61970;-79
2023/07/09 03:50:28;;;;;;;;;7.25;7.00;;;;;-146.67;44.98;74256.34;5102127;27;61993;-79
2023/07/09 03:52:54;;;;;;;;;9.75;8.75;;;;;-146.67;44.84;74256.34;5101633;27;63759;-79
2023/07/09 03:55:19;;;;;;;;;9.00;9.00;;;;;-146.67;44.73;74242.38;5101817;27;61814;-79
2023/07/09 03:57:45;;;;;;;;;10.00;9.00;;;;;-146.67;44.74;74248.38;5103215;27;61635;-79
2023/07/09 04:00:11;;;;;;;;;7.00;6.75;;;;;-146.67;44.42;74242.38;5103779;27;61887;-79
2023/07/09 04:02:39;;;;;;;;;11.75;9.00;;;;;-146.67;44.69;74238.38;5101432;27;64029;-79
2023/07/09 04:05:05;;;;;;;;;10.00;8.50;;;;;-146.67;44.44;74246.38;5103308;27;62176;-79
2023/07/09 04:07:30;;;;;;;;;9.25;6.00;;;;;-146.67;44.57;74242.38;5101995;27;61866;-79
2023/07/09 04:09:56;;;;;;;;;10.75;7.00;;;;;-146.67;44.59;74262.34;5102985;27;61768;-79
2023/07/09 04:12:21;;;;;;;;;7.75;7.75;;;;;-146.67;44.33;74246.38;5101105;27;64793;-79
2023/07/09 04:14:46;;;;;;;;;7.00;6.00;;;;;-146.67;44.42;74250.38;5103408;27;61748;-79
2023/07/09 04:17:12;;;;;;;;;7.00;7.00;;;;;-146.67;43.77;74244.38;5102450;27;61984;-79
2023/07/09 04:19:38;;;;;;;;;8.25;8.25;;;;;-146.67;44.08;74246.38;5103190;27;61821;-79
2023/07/09 04:22:04;;;;;;;;;8.00;8.00;;;;;-146.67;43.85;74244.38;5101363;27;63748;-79
2023/07/09 04:24:30;;;;;;;;;5.75;5.00;;;;;-146.67;43.95;74248.38;5102832;27;61881;-79
2023/07/09 04:26:56;;;;;;;;;8.75;7.00;;;;;-146.67;43.81;74248.38;5102655;27;61951;-79
2023/07/09 04:29:24;;;;;;;;;8.50;7.00;;;;;-146.67;43.73;74246.38;5101865;27;62205;-79
2023/07/09 04:31:49;;;;;;;;;8.50;7.00;;;;;-146.67;43.78;74234.38;5102468;27;63076;-79
2023/07/09 04:34:15;;;;;;;;;12.50;8.00;;;;;-146.67;43.74;74242.38;5101494;27;61990;-79
2023/07/09 04:36:40;;;;;;;;;8.50;7.00;;;;;-146.67;43.44;74218.41;5102969;27;62358;-79
2023/07/09 04:39:06;;;;;;;;;8.25;7.50;;;;;-146.67;43.39;74212.44;5102946;27;61885;-79
2023/07/09 04:41:31;;;;;;;;;6.25;6.25;;;;;-146.67;42.76;74204.44;5100481;27;63639;-79
2023/07/09 04:43:57;;;;;;;;;7.25;7.25;;;;;-146.67;43.19;74198.47;5101483;27;61798;-79
2023/07/09 04:46:22;;;;;;;;;7.25;7.00;;;;;-146.67;43.24;74186.47;5101324;27;62251;-79
2023/07/09 04:48:48;;;;;;;;;7.00;7.00;;;;;-146.67;43.30;74194.47;5102472;27;61834;-79
2023/07/09 04:51:13;;;;;;;;;7.00;6.75;;;;;-146.67;43.00;74152.53;5103059;27;63175;-79
2023/07/09 04:53:39;;;;;;;;;7.75;7.00;;;;;-146.67;42.81;74140.56;5101019;27;61822;-79
2023/07/09 04:56:04;;;;;;;;;8.50;7.25;;;;;-146.67;42.83;74146.56;5101028;27;62004;-79
2023/07/09 04:58:30;;;;;;;;;7.25;6.75;;;;;-146.67;42.49;74134.56;5102801;27;61664;-79
2023/07/09 05:00:59;;;;;;;;;8.75;7.75;;;;;-146.67;42.66;74130.59;5100699;27;63807;-79
2023/07/09 05:03:25;;;;;;;;;10.00;9.50;;;;;-146.67;42.45;74128.59;5120141;27;61823;-79
2023/07/09 05:05:50;;;;;;;;;7.50;7.50;;;;;-146.67;42.67;74132.56;5123251;27;61726;-79
2023/07/09 05:08:16;;;;;;;;;9.00;7.75;;;;;-146.67;42.64;74124.59;5123389;27;61981;-79
2023/07/09 05:10:43;;;;;;;;;8.00;6.25;;;;;-146.67;42.36;74120.59;5124539;27;61934;-79
2023/07/09 05:13:09;;;;;;;;;7.75;7.75;;;;;-146.67;42.32;74104.63;5126713;27;61727;-79
2023/07/09 05:15:34;;;;;;;;;15.25;8.00;;;;;-146.67;42.10;74088.66;5126939;27;61878;-79
2023/07/09 05:17:59;;;;;;;;;7.00;6.50;;;;;-146.67;42.28;74100.63;5126371;27;61859;-80
2023/07/09 05:20:25;;;;;;;;;7.00;5.75;;;;;-146.67;41.98;74092.66;5126017;27;61880;-79
2023/07/09 05:22:51;;;;;;;;;7.00;7.00;;;;;-146.67;41.79;74070.69;5126419;27;61985;-79
2023/07/09 05:25:17;;;;;;;;;7.75;7.00;;;;;-146.67;42.10;74092.66;5124770;27;61790;-79
2023/07/09 05:27:42;;;;;;;;;7.00;7.00;;;;;-146.67;41.89;74090.66;5126745;27;61768;-79
2023/07/09 05:30:08;;;;;;;;;7.00;7.00;;;;;-146.67;41.49;74072.69;5125766;27;62127;-79
2023/07/09 05:32:35;;;;;;;;;9.50;7.50;;;;;-146.67;41.34;74052.72;5125216;27;61973;-80
2023/07/09 05:35:00;;;;;;;;;6.00;6.00;;;;;-146.67;41.07;74034.75;5125018;27;61275;-80
2023/07/09 05:37:26;;;;;;;;;9.75;8.00;;;;;-146.67;40.89;73998.84;5125304;27;61768;-79
2023/07/09 05:39:51;;;;;;;;;7.75;7.00;;;;;-146.67;40.85;74006.81;5120184;27;61710;-80
2023/07/09 05:42:17;;;;;;;;;8.00;7.00;;;;;-146.67;40.57;73986.84;5105666;27;61909;-80
2023/07/09 05:44:42;;;;;;;;;9.50;6.50;;;;;-146.67;39.52;73917.00;5105766;27;61786;-80
2023/07/09 05:47:08;;;;;;;;;12.00;8.00;;;;;-146.67;38.84;73845.13;5103839;27;61757;-80
2023/07/09 05:49:33;;;;;;;;;8.25;8.25;;;;;-146.67;38.41;73805.22;5103542;27;64691;-80
2023/07/09 05:51:59;;;;;;;;;9.00;7.25;;;;;-146.67;37.97;73785.25;5104050;27;61912;-80
2023/07/09 05:54:24;;;;;;;;;6.00;6.00;;;;;-146.67;37.63;73759.28;5104675;27;61666;-80
2023/07/09 05:56:49;;;;;;;;;9.67;8.33;;;;;-146.67;37.66;73759.28;5104396;27;61815;-80
2023/07/09 05:59:15;;;;;;;;;8.50;7.75;;;;;-146.67;37.76;73745.31;5103180;27;64777;-80
2023/07/09 06:01:40;;;;;;;;;10.00;8.00;;;;;-146.67;37.18;73737.34;5105634;27;61990;-80
2023/07/09 06:04:06;;;;;;;;;6.67;6.67;;;;;-146.67;37.10;73717.38;5103976;27;61887;-80
2023/07/09 06:06:31;;;;;;;;;7.00;5.67;;;;;-146.67;37.18;73735.34;5105567;27;62119;-80
2023/07/09 06:08:57;;;;;;;;;7.67;6.67;;;;;-146.67;37.27;73737.34;5104167;27;62104;-80
2023/07/09 06:11:23;;;;;;;;;8.33;6.67;;;;;-146.67;37.11;73741.34;5103449;27;61810;-84
2023/07/09 06:13:49;;;;;;;;;5.00;5.00;;;;;-146.67;37.18;73731.34;5121255;27;61896;-80
2023/07/09 06:16:15;;;;;;;;;6.00;6.00;;;;;-146.67;37.14;73719.38;5104833;27;62114;-82
2023/07/09 06:18:41;;;;;;;;;1.75;1.75;;;;;-146.67;37.02;73725.38;5102606;27;64042;-82
2023/07/09 06:21:07;;;;;;;;;12.50;11.00;;;;;-146.67;37.31;73763.28;5102209;27;62018;-82
2023/07/09 06:23:33;;;;;;;;;5.75;5.75;;;;;-146.67;37.31;73765.28;5104675;27;61988;-81
2023/07/09 06:25:58;;;;;;;;;9.00;7.75;;;;;-146.67;37.36;73769.28;5105271;27;62498;-82
2023/07/09 06:28:26;;;;;;;;;7.00;7.00;;;;;-146.67;37.50;73789.25;5104249;27;61729;-82
2023/07/09 06:30:52;;;;;;;;;7.00;6.33;;;;;-146.67;37.64;73809.19;5103731;27;61942;-83
2023/07/09 06:33:19;;;;;;;;;8.00;7.33;;;;;-146.67;37.73;73833.16;5104788;27;61753;-81
2023/07/09 06:35:56;;;;;;;;;8.67;8.00;;;;;-146.67;37.86;73861.09;5103754;27;61815;-82
2023/07/09 06:38:22;;;;;;;;;8.33;7.00;;;;;-146.67;37.97;73861.09;5103862;27;62672;-76
2023/07/09 06:40:47;;;;;;;;;10.00;7.00;;;;;-146.67;37.89;73861.09;5104358;27;61812;-73
2023/07/09 06:43:13;;;;;;;;;12.00;9.00;;;;;-146.67;37.89;73879.06;5104754;27;61753;-73
2023/07/09 06:45:39;;;;;;;;;9.00;8.00;;;;;-146.67;38.09;73881.06;5104935;27;61695;-73
2023/07/09 06:48:05;;;;;;;;;10.67;8.00;;;;;-146.67;38.11;73889.03;5103827;27;62920;-73
2023/07/09 06:50:34;;;;;;;;;8.00;8.00;;;;;-146.67;38.17;73909.00;5104562;27;61749;-83
2023/07/09 06:52:59;;;;;;;;;8.25;7.00;;;;;-146.67;38.55;73922.97;5103086;27;61805;-83
2023/07/09 06:55:25;;;;;;;;;7.33;6.67;;;;;-146.67;38.36;73913.00;5104420;27;61797;-74
2023/07/09 06:57:50;;;;;;;;;6.00;5.33;;;;;-146.67;38.25;73924.97;5104016;27;62749;-76
2023/07/09 07:00:16;;;;;;;;;10.00;8.75;;;;;-146.67;38.29;73930.97;5104476;27;61825;-76
2023/07/09 07:02:42;;;;;;;;;4.33;4.00;;;;;-146.67;38.15;73922.97;5104650;27;61892;-79
2023/07/09 07:05:07;;;;;;;;;10.25;8.00;;;;;-146.67;38.29;73932.97;5103209;27;61742;-79
2023/07/09 07:07:33;;;;;;;;;9.50;6.00;;;;;-146.67;38.34;73948.94;5103242;27;62982;-79
2023/07/09 07:09:58;;;;;;;;;9.00;9.00;;;;;-146.67;38.37;73956.91;5104314;27;61827;-79
2023/07/09 07:12:29;;;;;;;;;8.00;6.50;;;;;-146.67;38.59;73942.94;5104405;27;61987;-80
2023/07/09 07:14:55;;;;;;;;;10.25;8.75;;;;;-146.67;38.70;73934.94;5104548;27;61813;-80
2023/07/09 07:17:21;;;;;;;;;7.67;7.33;;;;;-146.67;38.23;73911.00;5103225;27;62589;-80
2023/07/09 07:19:47;;;;;;;;;11.25;8.00;;;;;-146.67;38.46;73907.00;5102592;27;61939;-77
2023/07/09 07:22:13;;;;;;;;;8.00;6.33;;;;;-146.67;37.93;73891.03;5102477;27;61866;-86
2023/07/09 07:24:39;;;;;;;;;8.00;7.50;;;;;-146.67;38.11;73903.00;5102743;27;61932;-85
2023/07/09 07:27:04;;;;;;;;;7.67;6.33;;;;;-146.67;38.14;73909.00;5103389;27;62885;-89
2023/07/09 07:29:30;;;;;;;;;8.00;8.00;;;;;-146.67;38.21;73917.00;5104124;27;61938;-78
2023/07/09 07:33:31;;;;;;;;;9.50;8.50;;;;;-146.67;38.17;73942.94;5116877;27;61825;-78
2023/07/09 07:35:56;;;;;;;;;9.67;7.33;;;;;-146.67;38.13;73942.94;5099459;27;61698;-91
2023/07/09 07:38:22;;;;;;;;;10.50;9.00;;;;;-146.67;38.21;73958.91;5100096;27;61802;-91
2023/07/09 07:40:47;;;;;;;;;7.00;7.00;;;;;-146.67;38.23;73982.88;5097258;27;63601;-88
2023/07/09 07:43:13;;;;;;;;;6.67;5.33;;;;;-146.67;38.08;73988.84;5115346;27;61798;-79
2023/07/09 07:45:42;;;;;;;;;10.00;8.00;;;;;-146.67;38.12;74008.81;5098224;27;61872;-79
2023/07/09 07:48:08;;;;;;;;;6.25;6.00;;;;;-146.67;38.35;74024.78;5115046;27;61754;-80
2023/07/09 07:50:33;;;;;;;;;10.00;7.00;;;;;-146.67;38.20;74040.75;5114197;27;63513;-80
2023/07/09 07:52:58;;;;;;;;;10.75;8.00;;;;;-146.67;38.70;74068.69;5129873;27;61777;-75
2023/07/09 07:55:24;;;;;;;;;7.33;6.00;;;;;-146.67;38.92;74100.63;5120002;27;61799;-80
2023/07/09 07:57:49;;;;;;;;;8.00;7.00;;;;;-146.67;39.00;74136.56;5117166;27;62152;-83
2023/07/09 08:00:16;;;;;;;;;7.75;6.00;;;;;-146.67;38.87;74152.53;5097110;27;63670;-83
2023/07/09 08:02:41;;;;;;;;;6.33;5.00;;;;;-146.67;39.26;74156.53;5097904;27;61963;-86
2023/07/09 08:05:07;;;;;;;;;8.50;7.50;;;;;-146.67;39.21;74156.53;5095954;27;61999;-86
2023/07/09 08:07:32;;;;;;;;;10.00;8.25;;;;;-146.67;39.48;74144.56;5099394;27;62326;-87
2023/07/09 08:09:57;;;;;;;;;11.00;9.00;;;;;-146.67;39.20;74116.59;5098207;27;62062;-86
2023/07/09 08:12:23;;;;;;;;;7.75;6.50;;;;;-146.67;39.93;74122.59;5098480;27;61766;-85
2023/07/09 08:14:48;;;;;;;;;14.75;9.75;;;;;-146.67;39.63;74126.59;5097481;27;62111;-85
2023/07/09 08:17:14;;;;;;;;;5.00;5.00;;;;;-146.67;39.53;74134.56;5098608;27;61776;-82
2023/07/09 08:19:48;;;;;;;;;8.75;7.00;;;;;-146.67;40.02;74144.56;5131258;27;64590;-81
2023/07/09 08:22:15;;;;;;;;;3.50;3.50;;;;;-146.67;40.07;74174.50;5114556;27;61967;-79
2023/07/09 08:24:40;;;;;;;;;6.75;6.75;;;;;-146.67;40.30;74172.50;5097519;27;61895;-82
2023/07/09 08:27:07;;;;;;;;;8.25;7.50;;;;;-146.67;40.22;74180.50;5097515;27;61935;-80
2023/07/09 08:29:32;;;;;;;;;7.75;4.50;;;;;-146.67;40.40;74166.50;5098248;27;63120;-80
2023/07/09 08:31:58;;;;;;;;;7.00;7.00;;;;;-146.67;40.52;74158.53;5097151;27;61962;-79
2023/07/09 08:34:24;;;;;;;;;11.25;8.75;;;;;-146.67;40.14;74156.53;5096644;27;61863;-81
2023/07/09 08:36:50;;;;;;;;;9.00;8.00;;;;;-146.67;40.45;74152.53;5099124;27;61786;-79
2023/07/09 08:39:15;;;;;;;;;7.50;6.50;;;;;-146.67;40.15;74148.56;5100754;27;64664;-83
2023/07/09 08:41:48;;;;;;;;;7.50;7.50;;;;;-146.67;40.56;74120.59;5096537;27;61973;-82
2023/07/09 08:44:33;;;;;;;;;9.00;8.00;;;;;-146.67;40.33;74102.63;5086527;27;62236;-83
2023/07/09 08:47:10;;;;;;;;;9.50;8.75;;;;;-146.67;40.69;74108.63;5100696;27;62010;-83
2023/07/09 08:49:35;;;;;;;;;10.50;7.00;;;;;-146.67;40.84;74098.66;5084310;28;62121;-82
2023/07/09 08:52:02;;;;;;;;;7.50;6.50;;;;;-146.67;39.90;74066.69;5103726;27;61948;-81
2023/07/09 08:54:32;;;;;;;;;8.00;8.00;;;;;-146.67;39.89;74058.72;5104937;27;62312;-82
2023/07/09 08:57:07;;;;;;;;;10.67;8.00;;;;;-146.67;39.78;74018.78;5104174;27;62180;-81
2023/07/09 08:59:33;;;;;;;;;7.25;7.00;;;;;-146.67;39.58;73998.84;5104604;27;62824;-80
2023/07/09 09:02:03;;;;;;;;;8.50;6.75;;;;;-146.67;39.46;73988.84;5103822;27;61744;-80
2023/07/09 09:04:31;;;;;;;;;9.50;8.00;;;;;-146.67;39.26;73988.84;5090401;27;61841;-81
2023/07/09 09:07:16;;;;;;;;;8.25;8.25;;;;;-146.67;38.94;73986.84;5081740;27;62183;-77
2023/07/09 09:09:52;;;;;;;;;9.00;9.00;;;;;-146.67;39.39;73974.88;5082908;27;62843;-80
2023/07/09 09:12:26;;;;;;;;;7.75;7.75;;;;;-146.67;39.38;73972.88;5083931;28;62627;-79
2023/07/09 09:15:11;;;;;;;;;12.25;9.50;;;;;-146.67;39.21;73968.88;5084073;27;61910;-80
2023/07/09 09:17:39;;;;;;;;;7.00;6.33;;;;;-146.67;39.00;73966.91;5100851;27;61927;-81
2023/07/09 09:20:28;;;;;;;;;6.67;6.67;;;;;-146.67;39.11;73968.88;5083736;28;61713;-81
2023/07/09 09:23:04;;;;;;;;;8.67;8.67;;;;;-146.67;39.38;73964.91;5083741;27;62043;-85
2023/07/09 09:25:31;;;;;;;;;8.33;7.67;;;;;-146.67;38.95;73974.88;5105771;27;62191;-80
2023/07/09 09:27:59;;;;;;;;;9.00;6.67;;;;;-146.67;38.65;73988.84;5096499;27;61910;-80
2023/07/09 09:30:25;;;;;;;;;5.67;5.67;;;;;-146.67;38.62;74012.81;5063595;28;61751;-80
2023/07/09 09:32:57;;;;;;;;;6.33;5.33;;;;;-146.67;38.87;74006.81;5072432;28;61948;-78
2023/07/09 09:35:49;;;;;;;;;9.00;6.67;;;;;-146.67;38.74;73980.88;5077619;27;61722;-79
2023/07/09 09:38:22;;;;;;;;;8.00;7.00;;;;;-146.67;38.33;73956.91;5081395;28;61886;-79
2023/07/09 09:40:48;;;;;;;;;7.00;6.33;;;;;-146.67;38.14;73960.91;5097951;27;65128;-79
2023/07/09 09:43:19;;;;;;;;;11.00;7.33;;;;;-146.67;38.17;73972.88;5083289;28;61733;-79
2023/07/09 09:45:47;;;;;;;;;8.00;6.00;;;;;-146.67;38.31;73986.84;5082992;27;62061;-79
2023/07/09 09:48:30;;;;;;;;;11.75;8.50;;;;;-146.67;38.58;74018.78;5083424;27;61795;-80
2023/07/09 09:51:03;;;;;;;;;8.33;8.00;;;;;-146.67;39.37;74060.72;5068499;28;61819;-79
2023/07/09 09:53:34;;;;;;;;;11.75;9.75;;;;;-146.67;39.88;74062.72;5083199;27;62142;-80
2023/07/09 09:56:04;;;;;;;;;10.75;8.75;;;;;-146.67;39.77;74062.72;5082097;28;62000;-80
2023/07/09 09:58:30;;;;;;;;;10.67;10.00;;;;;-146.67;39.68;74050.72;5099169;27;61983;-80
2023/07/09 10:00:58;;;;;;;;;11.00;10.33;;;;;-146.67;39.98;74042.75;5081422;28;64697;-80
2023/07/09 10:03:44;;;;;;;;;8.00;8.00;;;;;-146.67;39.35;74048.75;5099358;27;61885;-79
2023/07/09 10:06:24;;;;;;;;;9.00;8.00;;;;;-146.67;39.61;74056.72;5083737;27;61786;-78
2023/07/09 10:08:56;;;;;;;;;10.00;8.67;;;;;-146.67;39.83;74062.72;5083222;28;61876;-78
2023/07/09 10:11:40;;;;;;;;;10.75;9.25;;;;;-146.67;39.48;74062.72;5097294;27;63707;-79
2023/07/09 10:14:17;;;;;;;;;13.00;10.00;;;;;-146.67;39.35;74054.72;5078388;28;61964;-78
2023/07/09 10:16:48;;;;;;;;;11.50;9.25;;;;;-146.67;39.94;74040.75;5078702;28;61848;-79
2023/07/09 10:19:39;;;;;;;;;8.50;8.00;;;;;-146.67;40.31;74014.81;5061466;28;62228;-78
2023/07/09 10:22:35;;;;;;;;;9.25;8.00;;;;;-146.67;40.26;73974.88;5061171;28;64887;-78
2023/07/09 10:25:14;;;;;;;;;10.50;9.50;;;;;-146.67;40.54;73948.94;5080627;28;61656;-79
2023/07/09 10:27:59;;;;;;;;;10.25;8.50;;;;;-146.67;39.58;73960.91;5083347;27;61742;-84
2023/07/09 10:30:55;;;;;;;;;19.25;15.00;;;;;-146.67;39.60;73970.88;5062254;28;61777;-77
2023/07/09 10:33:39;;;;;;;;;9.50;8.25;;;;;-146.67;39.75;73950.94;5060267;28;63561;-78
2023/07/09 10:36:52;;;;;;;;;9.50;9.50;;;;;-146.67;39.90;73968.88;5071594;28;61913;-78
2023/07/09 10:39:24;;;;;;;;;12.67;11.33;;;;;-146.67;39.92;73960.91;5025083;28;61970;-79
2023/07/09 10:41:56;;;;;;;;;12.00;10.75;;;;;-146.67;40.19;73942.94;5052278;28;62221;-81
2023/07/09 10:44:33;;;;;;;;;10.50;10.50;;;;;-146.67;39.65;73924.97;5028733;28;64072;-81
2023/07/09 10:47:06;;;;;;;;;14.25;12.25;;;;;-146.67;39.66;73922.97;5039344;28;61849;-77
2023/07/09 10:49:37;;;;;;;;;11.50;10.00;;;;;-146.67;39.60;73930.97;5048556;28;61905;-78
2023/07/09 10:52:17;;;;;;;;;17.25;14.25;;;;;-146.67;39.68;73897.03;5020478;28;62103;-78
2023/07/09 10:55:00;;;;;;;;;12.00;9.00;;;;;-146.67;39.57;73913.00;5045138;28;65012;-78
2023/07/09 10:57:33;;;;;;;;;13.33;9.67;;;;;-146.67;39.22;73885.06;5059903;28;62042;-78
2023/07/09 11:00:00;;;;;;;;;9.00;9.00;;;;;-146.67;39.32;73861.09;5030605;28;61821;-78
2023/07/09 11:02:29;;;;;;;;;9.75;9.75;;;;;-146.67;38.98;73869.09;5039783;28;62019;-78
2023/07/09 11:04:56;;;;;;;;;12.00;11.67;;;;;-146.67;38.89;73857.09;5047397;28;61792;-77
2023/07/09 11:07:39;;;;;;;;;11.75;9.75;;;;;-146.67;38.44;73827.16;5022343;28;61796;-77
2023/07/09 11:10:25;;;;;;;;;12.00;11.00;;;;;-146.67;37.90;73803.22;5019494;28;61874;-77
2023/07/09 11:13:11;;;;;;;;;9.67;9.67;;;;;-146.67;37.70;73775.25;5060052;27;61812;-77
2023/07/09 11:15:41;;;;;;;;;8.67;7.67;;;;;-146.67;37.53;73767.28;5081558;28;62844;-79
2023/07/09 11:18:11;;;;;;;;;10.67;8.67;;;;;-146.67;37.43;73753.31;5097323;27;61812;-83
2023/07/09 11:20:43;;;;;;;;;12.00;11.33;;;;;-146.67;37.27;73745.31;5097914;27;62479;-85